Time;durP1;ratioP1;P1;durP2;ratioP2;P2;SDS_P1;SDS_P2;PMS_P1;PMS_P2;Temp;Humidity;BMP_temperature;BMP_pressure;BME280_temperature;BME280_humidity;BME280_pressure;Samples;Min_cycle;Max_cycle;Signal;HPM_P1;HPM_P2
2023/05/08 00:00:08;;;;;;;16.45;11.10;;;13.10;99.90;;;;;;6272337;22;20023;-69
2023/05/08 00:02:34;;;;;;;15.15;10.88;;;13.10;99.90;;;;;;6272389;22;20126;-65
2023/05/08 00:04:59;;;;;;;15.27;11.30;;;13.10;99.90;;;;;;6244590;22;20055;-65
2023/05/08 00:07:25;;;;;;;16.52;10.93;;;13.10;99.90;;;;;;6270501;22;20115;-65
2023/05/08 00:09:51;;;;;;;16.83;11.43;;;13.10;99.90;;;;;;6272092;22;20082;-65
2023/05/08 00:12:16;;;;;;;17.90;11.45;;;13.10;99.90;;;;;;6244655;22;20034;-65
2023/05/08 00:14:42;;;;;;;14.75;11.25;;;13.10;99.90;;;;;;6272211;22;20019;-65
2023/05/08 00:17:08;;;;;;;16.42;11.65;;;13.10;99.90;;;;;;6271847;22;20499;-65
2023/05/08 00:19:33;;;;;;;16.48;11.93;;;13.00;99.90;;;;;;6272077;22;20108;-65
2023/05/08 00:21:59;;;;;;;17.40;11.15;;;13.10;99.90;;;;;;6272359;22;20015;-69
2023/05/08 00:24:25;;;;;;;16.90;11.57;;;13.00;99.90;;;;;;6272189;22;20040;-65
2023/05/08 00:26:50;;;;;;;17.77;12.13;;;12.90;99.90;;;;;;6271952;22;20015;-65
2023/05/08 00:29:16;;;;;;;15.23;11.23;;;12.80;99.90;;;;;;6272015;22;20065;-65
2023/05/08 00:31:42;;;;;;;14.40;11.43;;;12.90;99.90;;;;;;6271896;22;20439;-65
2023/05/08 00:34:07;;;;;;;16.17;11.02;;;12.90;99.90;;;;;;6272022;22;20375;-65
2023/05/08 00:36:33;;;;;;;15.07;11.02;;;12.90;99.90;;;;;;6271875;22;20015;-65
2023/05/08 00:38:59;;;;;;;15.77;10.77;;;12.80;99.90;;;;;;6271314;22;20023;-65
2023/05/08 00:41:25;;;;;;;16.98;11.25;;;12.80;99.90;;;;;;6271811;22;20015;-65
2023/05/08 00:43:50;;;;;;;19.42;13.07;;;12.90;99.90;;;;;;6272482;22;20824;-65
2023/05/08 00:46:16;;;;;;;14.75;11.05;;;12.90;99.90;;;;;;6271926;22;20019;-65
2023/05/08 00:48:43;;;;;;;19.17;11.50;;;12.90;99.90;;;;;;6272116;22;20023;-65
2023/05/08 00:51:10;;;;;;;15.70;11.55;;;12.90;99.90;;;;;;6272077;22;20133;-65
2023/05/08 00:53:39;;;;;;;16.27;11.40;;;12.90;99.90;;;;;;6271896;22;20015;-65
2023/05/08 00:56:05;;;;;;;16.77;11.13;;;12.80;99.90;;;;;;6271720;22;20071;-65
2023/05/08 00:58:32;;;;;;;15.68;11.45;;;12.80;99.90;;;;;;6271927;22;20020;-65
2023/05/08 01:00:58;;;;;;;16.85;11.10;;;12.80;99.90;;;;;;6271638;22;20025;-65
2023/05/08 01:03:24;;;;;;;16.95;11.93;;;12.70;99.90;;;;;;6271963;22;20758;-65
2023/05/08 01:05:50;;;;;;;15.80;11.30;;;12.70;99.90;;;;;;6271695;22;20087;-65
2023/05/08 01:08:16;;;;;;;12.98;10.55;;;12.70;99.90;;;;;;6271419;22;20117;-65
2023/05/08 01:11:07;;;;;;;15.77;11.20;;;12.60;99.90;;;;;;6244793;22;20015;-65
2023/05/08 01:14:12;;;;;;;17.90;11.63;;;12.70;99.90;;;;;;6271894;22;20011;-65
2023/05/08 01:16:43;;;;;;;17.13;11.82;;;12.60;99.90;;;;;;6272588;22;20038;-65
2023/05/08 01:19:36;;;;;;;15.20;11.35;;;12.60;99.90;;;;;;6271932;22;20022;-65
2023/05/08 01:22:19;;;;;;;16.42;10.77;;;12.60;99.90;;;;;;6271471;22;20027;-65
2023/05/08 01:25:22;;;;;;;15.32;10.50;;;12.60;99.90;;;;;;6271361;22;20026;-65
2023/05/08 01:28:25;;;;;;;13.23;10.05;;;12.50;99.90;;;;;;6271617;22;20331;-65
2023/05/08 01:30:59;;;;;;;15.90;11.40;;;12.50;99.90;;;;;;6271418;22;20046;-65
2023/05/08 01:33:38;;;;;;;15.00;11.02;;;12.40;99.90;;;;;;6271679;22;20077;-65
2023/05/08 01:36:28;;;;;;;15.18;10.65;;;12.40;99.90;;;;;;6244325;22;20625;-65
2023/05/08 01:39:13;;;;;;;15.27;10.70;;;12.30;99.90;;;;;;6271675;22;20039;-67
2023/05/08 01:41:44;;;;;;;16.65;10.68;;;12.20;99.90;;;;;;6271994;22;20015;-65
2023/05/08 01:44:16;;;;;;;16.77;10.93;;;12.20;99.90;;;;;;6271734;22;20342;-65
2023/05/08 01:46:47;;;;;;;15.38;10.55;;;12.20;99.90;;;;;;6269500;22;20024;-65
2023/05/08 01:49:25;;;;;;;13.77;10.35;;;12.10;99.90;;;;;;6271917;22;20103;-65
2023/05/08 01:52:32;;;;;;;12.68;10.45;;;12.10;99.90;;;;;;6273563;22;20073;-65
2023/05/08 01:55:10;;;;;;;15.32;10.68;;;12.10;99.90;;;;;;6269807;22;20038;-65
2023/05/08 01:57:41;;;;;;;15.73;10.30;;;12.00;99.90;;;;;;6273780;22;20082;-65
2023/05/08 02:00:08;;;;;;;14.73;11.60;;;11.90;99.90;;;;;;6273568;22;20125;-65
2023/05/08 02:02:35;;;;;;;15.85;11.20;;;11.90;99.90;;;;;;6245815;22;20028;-65
2023/05/08 02:05:04;;;;;;;15.52;11.48;;;11.90;99.90;;;;;;6273414;22;20185;-65
2023/05/08 02:07:30;;;;;;;13.45;10.15;;;11.90;99.90;;;;;;6272833;22;20023;-65
2023/05/08 02:09:58;;;;;;;15.60;11.00;;;11.90;99.90;;;;;;6273344;22;20112;-65
2023/05/08 02:12:24;;;;;;;13.75;10.18;;;11.90;99.90;;;;;;6273070;22;20026;-65
2023/05/08 02:14:52;;;;;;;15.10;10.98;;;11.90;99.90;;;;;;6273159;22;20026;-65
2023/05/08 02:17:19;;;;;;;16.23;11.52;;;11.90;99.90;;;;;;6273345;22;20016;-65
2023/05/08 02:19:46;;;;;;;16.40;11.02;;;11.90;99.90;;;;;;6273007;22;20073;-65
2023/05/08 02:22:14;;;;;;;13.60;10.35;;;11.80;99.90;;;;;;6272434;22;20467;-65
2023/05/08 02:24:41;;;;;;;16.52;11.57;;;11.70;99.90;;;;;;6273242;22;20329;-65
2023/05/08 02:27:08;;;;;;;14.70;10.38;;;11.80;99.90;;;;;;6272954;22;20058;-65
2023/05/08 02:29:36;;;;;;;13.85;10.48;;;11.70;99.90;;;;;;6273124;22;20016;-65
2023/05/08 02:32:02;;;;;;;16.35;11.43;;;11.70;99.90;;;;;;6272841;22;20089;-65
2023/05/08 02:34:30;;;;;;;14.70;10.25;;;11.80;99.90;;;;;;6273164;22;20092;-68
2023/05/08 02:36:57;;;;;;;18.23;11.98;;;11.70;99.90;;;;;;6245189;22;20028;-67
2023/05/08 02:39:29;;;;;;;17.08;11.75;;;11.70;99.90;;;;;;6272951;22;20026;-67
2023/05/08 02:41:56;;;;;;;15.43;11.20;;;11.80;99.90;;;;;;6272826;22;20045;-68
2023/05/08 02:44:22;;;;;;;20.85;11.48;;;11.80;99.90;;;;;;6272955;22;20027;-67
2023/05/08 02:47:14;;;;;;;14.48;10.90;;;11.80;99.90;;;;;;6271278;22;20332;-67
2023/05/08 02:49:53;;;;;;;15.55;11.70;;;11.70;99.90;;;;;;6273132;22;20024;-67
2023/05/08 02:52:31;;;;;;;14.48;9.90;;;11.80;99.90;;;;;;6272936;22;20030;-67
2023/05/08 02:55:10;;;;;;;15.85;10.88;;;11.60;99.90;;;;;;6245715;22;20410;-69
2023/05/08 02:57:46;;;;;;;13.57;10.48;;;11.60;99.90;;;;;;6273002;22;20024;-68
2023/05/08 03:00:19;;;;;;;13.52;9.55;;;11.40;99.90;;;;;;6272574;22;20026;-68
2023/05/08 03:03:10;;;;;;;14.77;10.68;;;11.50;99.90;;;;;;6272825;22;20078;-68
2023/05/08 03:05:38;;;;;;;13.30;10.38;;;11.50;99.90;;;;;;6272839;22;20033;-68
2023/05/08 03:08:14;;;;;;;14.57;10.35;;;11.50;99.90;;;;;;6272472;22;20023;-69
2023/05/08 03:10:42;;;;;;;14.07;10.70;;;11.50;99.90;;;;;;6273349;22;20030;-68
2023/05/08 03:13:11;;;;;;;15.38;10.60;;;11.50;99.90;;;;;;6273166;22;20016;-65
2023/05/08 03:15:45;;;;;;;15.07;10.80;;;11.50;99.90;;;;;;6272613;22;20031;-65
2023/05/08 03:18:18;;;;;;;14.85;10.55;;;11.50;99.90;;;;;;6272576;22;20020;-65
2023/05/08 03:20:46;;;;;;;;;;;11.50;99.90;;;;;;6273004;22;20023;-65
2023/05/08 03:23:14;;;;;;;16.27;11.07;;;11.50;99.90;;;;;;6272829;22;19922;-65
2023/05/08 03:25:43;;;;;;;14.57;10.43;;;11.40;99.90;;;;;;6272873;22;20339;-65
2023/05/08 03:28:10;;;;;;;15.05;10.27;;;11.30;99.90;;;;;;6272851;22;20090;-65
2023/05/08 03:30:37;;;;;;;17.20;11.35;;;11.40;99.90;;;;;;6272840;22;20007;-64
2023/05/08 03:33:06;;;;;;;15.20;9.98;;;11.40;99.90;;;;;;6245628;22;20082;-65
2023/05/08 03:35:37;;;;;;;13.82;9.45;;;11.30;99.90;;;;;;6272662;22;20018;-65
2023/05/08 03:38:04;;;;;;;13.80;10.25;;;11.30;99.90;;;;;;6272855;22;20062;-65
2023/05/08 03:40:30;;;;;;;13.35;10.02;;;11.40;99.90;;;;;;6272901;22;20067;-64
2023/05/08 03:42:59;;;;;;;15.20;10.63;;;11.30;99.90;;;;;;6272504;22;20217;-65
2023/05/08 03:45:26;;;;;;;13.63;10.15;;;11.20;99.90;;;;;;6272405;22;20321;-65
2023/05/08 03:47:52;;;;;;;15.38;10.27;;;11.30;99.90;;;;;;6272535;22;20023;-65
2023/05/08 03:50:18;;;;;;;13.73;10.20;;;11.30;99.90;;;;;;6244859;22;20482;-65
2023/05/08 03:52:45;;;;;;;14.38;10.40;;;11.30;99.90;;;;;;6272166;22;20015;-65
2023/05/08 03:55:10;;;;;;;13.52;10.40;;;11.20;99.90;;;;;;6244778;22;20019;-65
2023/05/08 03:57:56;;;;;;;12.98;9.38;;;11.30;99.90;;;;;;6272062;22;20091;-65
2023/05/08 04:00:41;;;;;;;14.05;10.05;;;11.20;99.90;;;;;;6272622;22;20086;-65
2023/05/08 04:03:20;;;;;;;14.13;10.13;;;11.30;99.90;;;;;;6219395;22;20070;-65
2023/05/08 04:05:51;;;;;;;14.75;9.93;;;11.30;99.90;;;;;;6244745;22;20026;-65
2023/05/08 04:08:27;;;;;;;14.10;10.00;;;11.20;99.90;;;;;;6272535;22;20317;-65
2023/05/08 04:11:16;;;;;;;14.50;10.57;;;11.20;99.90;;;;;;6272177;22;20586;-75
2023/05/08 04:13:48;;;;;;;17.15;10.15;;;11.20;99.90;;;;;;6245397;22;20161;-75
2023/05/08 04:16:26;;;;;;;15.32;10.57;;;11.30;99.90;;;;;;6286909;22;20352;-75
2023/05/08 04:19:00;;;;;;;16.13;10.85;;;11.20;99.90;;;;;;6245489;22;20058;-74
2023/05/08 04:21:27;;;;;;;15.30;9.60;;;11.20;99.90;;;;;;6273423;22;20090;-75
2023/05/08 04:23:55;;;;;;;12.93;9.38;;;11.20;99.90;;;;;;6273239;22;20015;-75
2023/05/08 04:26:21;;;;;;;14.57;10.32;;;11.20;99.90;;;;;;6273214;22;20042;-77
2023/05/08 04:28:47;;;;;;;16.58;10.85;;;11.10;99.90;;;;;;6273248;22;20102;-65
2023/05/08 04:31:15;;;;;;;17.33;10.43;;;11.10;99.90;;;;;;6271849;22;20103;-64
2023/05/08 04:33:42;;;;;;;14.07;9.95;;;11.00;99.90;;;;;;6271688;22;20030;-65
2023/05/08 04:36:11;;;;;;;14.65;10.48;;;11.00;99.90;;;;;;6272253;22;20317;-64
2023/05/08 04:38:37;;;;;;;14.07;10.32;;;11.00;99.90;;;;;;6271957;22;20020;-65
2023/05/08 04:41:02;;;;;;;13.75;10.25;;;10.90;99.90;;;;;;6271913;22;20518;-64
2023/05/08 04:43:28;;;;;;;13.05;10.13;;;11.00;99.90;;;;;;6272090;22;20015;-64
2023/05/08 04:45:54;;;;;;;15.07;10.63;;;11.00;99.90;;;;;;6272148;22;20035;-64
2023/05/08 04:48:19;;;;;;;12.77;9.77;;;11.00;99.90;;;;;;6271740;22;20047;-68
2023/05/08 04:50:45;;;;;;;15.63;10.45;;;11.00;99.90;;;;;;6271935;22;20012;-67
2023/05/08 04:53:11;;;;;;;16.75;10.80;;;11.10;99.90;;;;;;6272246;22;20451;-68
2023/05/08 04:55:36;;;;;;;21.13;11.55;;;11.00;99.90;;;;;;6271100;22;20118;-68
2023/05/08 04:58:02;;;;;;;12.80;9.38;;;11.00;99.90;;;;;;6271736;22;20343;-68
2023/05/08 05:00:28;;;;;;;15.05;10.30;;;11.00;99.90;;;;;;6244524;22;20027;-68
2023/05/08 05:02:53;;;;;;;12.73;10.23;;;11.00;99.90;;;;;;6271481;22;20023;-68
2023/05/08 05:05:19;;;;;;;15.60;11.52;;;11.00;99.90;;;;;;6271815;22;20106;-68
2023/05/08 05:07:45;;;;;;;15.73;11.32;;;11.00;99.90;;;;;;6272952;22;20011;-68
2023/05/08 05:10:10;;;;;;;17.33;11.15;;;11.10;99.90;;;;;;6272325;22;20020;-68
2023/05/08 05:12:37;;;;;;;14.05;10.68;;;11.00;99.90;;;;;;6271757;22;20020;-68
2023/05/08 05:15:03;;;;;;;15.82;11.02;;;11.10;99.90;;;;;;6271305;22;20016;-67
2023/05/08 05:17:30;;;;;;;13.50;10.13;;;11.10;99.90;;;;;;6271280;22;20030;-70
2023/05/08 05:19:56;;;;;;;14.68;9.90;;;11.10;99.90;;;;;;6271377;22;20023;-68
2023/05/08 05:22:22;;;;;;;15.75;9.98;;;11.30;99.90;;;;;;6244035;22;20024;-68
2023/05/08 05:24:47;;;;;;;14.77;10.45;;;11.40;99.90;;;;;;6272420;22;20470;-68
2023/05/08 05:27:13;;;;;;;16.13;9.75;;;11.60;99.90;;;;;;6273219;22;20026;-65
2023/05/08 05:29:39;;;;;;;13.85;10.30;;;11.70;99.90;;;;;;6273153;22;20020;-64
2023/05/08 05:32:08;;;;;;;15.82;10.32;;;11.90;99.90;;;;;;6271877;22;20331;-64
2023/05/08 05:34:33;;;;;;;13.13;10.18;;;12.10;99.90;;;;;;6245532;22;20355;-65
2023/05/08 05:36:59;;;;;;;14.75;11.05;;;12.20;99.90;;;;;;6245688;22;20024;-64
2023/05/08 05:39:25;;;;;;;14.95;10.25;;;12.30;99.90;;;;;;6272645;22;20019;-64
2023/05/08 05:41:51;;;;;;;13.63;9.85;;;12.50;99.90;;;;;;6273517;22;20016;-64
2023/05/08 05:44:17;;;;;;;13.98;10.55;;;12.50;99.90;;;;;;6273782;22;20030;-64
2023/05/08 05:46:43;;;;;;;13.90;10.43;;;12.60;99.90;;;;;;6274005;22;20099;-76
2023/05/08 05:49:08;;;;;;;13.85;9.35;;;12.80;99.90;;;;;;6274266;22;20062;-79
2023/05/08 05:51:34;;;;;;;11.05;9.00;;;12.80;99.90;;;;;;6273992;22;20023;-74
2023/05/08 05:54:00;;;;;;;12.90;9.45;;;12.90;99.90;;;;;;6246725;22;20024;-77
2023/05/08 05:56:25;;;;;;;13.85;9.60;;;13.00;99.90;;;;;;6273746;22;20019;-75
2023/05/08 05:58:51;;;;;;;13.90;9.80;;;13.00;99.90;;;;;;6273617;22;20113;-78
2023/05/08 06:01:17;;;;;;;11.25;8.50;;;13.00;99.90;;;;;;6272228;22;20027;-75
2023/05/08 06:03:42;;;;;;;11.30;8.73;;;13.00;99.90;;;;;;6246790;22;20019;-77
2023/05/08 06:06:09;;;;;;;11.93;8.68;;;13.10;99.90;;;;;;6272836;22;20090;-67
2023/05/08 06:08:34;;;;;;;14.85;10.55;;;13.10;99.90;;;;;;6246075;22;20350;-67
2023/05/08 06:11:00;;;;;;;11.07;8.55;;;13.20;99.90;;;;;;6271460;22;20019;-67
2023/05/08 06:13:26;;;;;;;12.82;9.23;;;13.20;99.90;;;;;;6272868;22;20386;-67
2023/05/08 06:15:55;;;;;;;12.40;8.85;;;13.30;99.90;;;;;;6273045;22;20028;-67
2023/05/08 06:18:21;;;;;;;11.07;8.40;;;13.20;99.90;;;;;;6273346;22;20475;-67
2023/05/08 06:20:46;;;;;;;12.07;8.73;;;13.20;99.90;;;;;;6273658;22;20022;-67
2023/05/08 06:23:15;;;;;;;12.98;8.68;;;13.30;99.90;;;;;;6273410;22;20015;-67
2023/05/08 06:25:41;;;;;;;9.88;7.97;;;13.20;99.90;;;;;;6246146;22;20437;-67
2023/05/08 06:28:07;;;;;;;11.70;9.05;;;13.30;99.90;;;;;;6272858;22;20019;-69
2023/05/08 06:30:33;;;;;;;14.77;8.95;;;13.50;99.90;;;;;;6273202;22;20109;-67
2023/05/08 06:32:59;;;;;;;11.73;8.48;;;13.50;99.90;;;;;;6273297;22;20012;-67
2023/05/08 06:35:25;;;;;;;10.73;8.30;;;13.70;99.90;;;;;;6272559;22;20717;-67
2023/05/08 06:37:50;;;;;;;10.57;8.63;;;13.60;99.90;;;;;;6272906;22;20343;-67
2023/05/08 06:40:16;;;;;;;13.88;8.43;;;13.60;99.90;;;;;;6273161;22;20091;-67
2023/05/08 06:42:42;;;;;;;11.82;9.05;;;13.80;99.90;;;;;;6273089;22;20066;-67
2023/05/08 06:45:08;;;;;;;12.13;9.20;;;13.90;99.90;;;;;;6272812;22;20095;-67
2023/05/08 06:47:34;;;;;;;11.80;8.75;;;13.80;99.90;;;;;;6272861;22;20110;-67
2023/05/08 06:50:00;;;;;;;13.02;9.30;;;13.90;99.90;;;;;;6272826;22;20125;-67
2023/05/08 06:52:25;;;;;;;11.68;8.70;;;14.10;99.90;;;;;;6273289;22;20020;-67
2023/05/08 06:54:51;;;;;;;11.43;8.95;;;14.10;99.90;;;;;;6245482;22;20027;-67
2023/05/08 06:57:17;;;;;;;10.90;9.00;;;14.20;99.90;;;;;;6242589;22;20419;-67
2023/05/08 06:59:43;;;;;;;11.52;8.80;;;14.30;99.90;;;;;;6271825;22;20019;-67
2023/05/08 07:02:09;;;;;;;9.52;7.53;;;14.40;99.90;;;;;;6272609;22;20027;-72
2023/05/08 07:04:35;;;;;;;11.73;8.45;;;14.50;99.90;;;;;;6245078;22;20023;-69
2023/05/08 07:07:01;;;;;;;11.20;8.80;;;14.70;99.90;;;;;;6245109;22;20102;-69
2023/05/08 07:09:27;;;;;;;14.35;9.52;;;14.60;99.90;;;;;;6272039;22;20019;-68
2023/05/08 07:11:53;;;;;;;11.98;9.25;;;14.80;99.90;;;;;;6271455;22;20019;-69
2023/05/08 07:14:18;;;;;;;10.85;8.75;;;14.80;99.90;;;;;;6244190;22;20101;-69
2023/05/08 07:16:44;;;;;;;11.32;8.93;;;14.80;99.90;;;;;;6271144;22;20035;-69
2023/05/08 07:19:10;;;;;;;10.77;8.25;;;14.90;99.90;;;;;;6271568;22;20117;-69
2023/05/08 07:21:36;;;;;;;13.70;9.57;;;15.10;99.90;;;;;;6244675;22;20019;-72
2023/05/08 07:24:02;;;;;;;13.10;8.73;;;15.10;99.90;;;;;;6271449;22;20095;-71
2023/05/08 07:26:27;;;;;;;12.50;8.90;;;15.10;99.90;;;;;;6271945;22;20070;-72
2023/05/08 07:28:53;;;;;;;14.40;8.45;;;15.00;99.90;;;;;;6271979;22;20034;-71
2023/05/08 07:31:20;;;;;;;12.95;9.55;;;15.00;99.90;;;;;;6272144;22;20024;-71
2023/05/08 07:33:46;;;;;;;12.20;9.35;;;14.90;99.90;;;;;;6244807;22;20022;-71
2023/05/08 07:36:12;;;;;;;11.80;9.02;;;15.00;99.90;;;;;;6272065;22;20526;-71
2023/05/08 07:38:37;;;;;;;12.25;9.43;;;14.90;99.90;;;;;;6271904;22;20022;-71
2023/05/08 07:41:04;;;;;;;12.75;9.52;;;15.00;99.90;;;;;;6271942;22;20020;-70
2023/05/08 07:43:30;;;;;;;10.82;8.02;;;15.00;99.90;;;;;;6272157;22;20035;-66
2023/05/08 07:45:56;;;;;;;11.68;8.77;;;15.10;99.90;;;;;;6272083;22;20025;-66
2023/05/08 07:48:22;;;;;;;12.60;8.50;;;15.20;99.90;;;;;;6270271;22;20020;-66
2023/05/08 07:50:49;;;;;;;13.27;8.55;;;15.20;99.90;;;;;;6244578;22;20022;-67
2023/05/08 07:53:15;;;;;;;12.05;9.80;;;15.40;99.90;;;;;;6271780;22;20020;-66
2023/05/08 07:55:40;;;;;;;12.82;9.43;;;15.30;99.90;;;;;;6244037;22;20015;-66
2023/05/08 07:58:06;;;;;;;12.73;9.52;;;15.50;99.90;;;;;;6244508;22;20028;-66
2023/05/08 08:00:32;;;;;;;13.35;9.38;;;15.50;99.90;;;;;;6269760;22;20467;-66
2023/05/08 08:02:58;;;;;;;12.23;9.43;;;15.70;99.90;;;;;;6271536;22;20078;-66
2023/05/08 08:05:24;;;;;;;11.90;9.55;;;15.70;99.90;;;;;;6272004;22;20617;-66
2023/05/08 08:07:49;;;;;;;13.35;9.88;;;15.70;99.90;;;;;;6272070;22;20086;-66
2023/05/08 08:10:15;;;;;;;13.30;9.65;;;15.80;99.90;;;;;;6271055;22;20324;-66
2023/05/08 08:12:41;;;;;;;10.60;8.23;;;16.00;99.90;;;;;;6244458;22;20024;-66
2023/05/08 08:15:07;;;;;;;11.88;9.30;;;16.10;99.90;;;;;;6271145;22;20051;-67
2023/05/08 08:17:33;;;;;;;11.15;9.02;;;16.20;99.90;;;;;;6271850;22;20023;-67
2023/05/08 08:19:58;;;;;;;12.88;9.43;;;16.20;99.90;;;;;;6271102;22;20018;-67
2023/05/08 08:22:25;;;;;;;13.82;9.38;;;16.30;99.90;;;;;;6271420;22;20023;-67
2023/05/08 08:24:51;;;;;;;10.63;8.90;;;16.30;99.90;;;;;;6270943;22;20026;-68
2023/05/08 08:27:17;;;;;;;11.70;9.73;;;16.40;99.90;;;;;;6271313;22;20347;-67
2023/05/08 08:29:44;;;;;;;14.77;10.70;;;16.40;99.90;;;;;;6244147;22;20030;-68
2023/05/08 08:32:09;;;;;;;12.13;9.25;;;16.50;99.90;;;;;;6271590;22;20020;-67
2023/05/08 08:34:35;;;;;;;11.38;9.52;;;16.60;99.90;;;;;;6271557;22;20023;-68
2023/05/08 08:37:01;;;;;;;14.73;9.93;;;16.70;99.90;;;;;;6271844;22;20019;-67
2023/05/08 08:39:26;;;;;;;12.77;9.75;;;16.80;99.90;;;;;;6272364;22;20023;-79
2023/05/08 08:41:52;;;;;;;12.70;9.77;;;16.80;99.90;;;;;;6244348;22;20113;-79
2023/05/08 08:44:18;;;;;;;14.82;9.93;;;16.80;99.90;;;;;;6272637;22;20447;-78
2023/05/08 08:46:51;;;;;;;14.30;9.98;;;16.80;99.90;;;;;;6245541;22;20454;-78
2023/05/08 08:49:22;;;;;;;15.88;9.38;;;16.80;99.90;;;;;;6245864;22;20023;-79
2023/05/08 08:51:54;;;;;;;13.48;10.48;;;17.00;99.90;;;;;;6245498;22;20031;-79
2023/05/08 08:54:22;;;;;;;;;;;17.10;99.90;;;;;;6245822;22;20026;-79
2023/05/08 08:56:48;;;;;;;15.40;9.68;;;17.20;99.90;;;;;;6245719;22;19988;-79
2023/05/08 08:59:17;;;;;;;13.23;9.57;;;17.20;99.90;;;;;;6244293;22;20359;-78
2023/05/08 09:01:46;;;;;;;16.52;10.50;;;17.20;99.90;;;;;;6273370;22;20021;-78
2023/05/08 09:04:12;;;;;;;11.82;9.55;;;17.30;99.90;;;;;;6245323;22;20098;-77
2023/05/08 09:06:41;;;;;;;14.60;10.27;;;17.30;99.90;;;;;;6272675;22;20070;-78
2023/05/08 09:09:07;;;;;;;12.63;10.27;;;17.40;99.90;;;;;;6246219;22;20342;-78
2023/05/08 09:11:35;;;;;;;13.50;10.60;;;17.50;99.90;;;;;;6245388;22;20046;-77
2023/05/08 09:14:02;;;;;;;12.50;10.43;;;17.30;99.90;;;;;;6245426;22;20490;-77
2023/05/08 09:16:28;;;;;;;16.50;10.77;;;17.50;99.90;;;;;;6219016;22;20028;-72
2023/05/08 09:18:53;;;;;;;14.00;10.73;;;17.40;99.90;;;;;;6271275;22;20027;-72
2023/05/08 09:21:21;;;;;;;13.43;10.48;;;17.50;99.90;;;;;;6271649;22;20023;-72
2023/05/08 09:23:56;;;;;;;15.38;10.48;;;17.70;99.90;;;;;;6271457;22;20026;-72
2023/05/08 09:26:35;;;;;;;14.63;11.45;;;17.80;99.90;;;;;;6244189;22;20458;-72
2023/05/08 09:29:21;;;;;;;13.63;10.40;;;17.90;99.90;;;;;;6244195;22;20024;-72
2023/05/08 09:31:52;;;;;;;13.35;10.10;;;17.90;99.90;;;;;;6244072;22;20519;-73
2023/05/08 09:34:25;;;;;;;13.95;9.70;;;18.10;99.90;;;;;;6271993;22;20019;-72
2023/05/08 09:36:51;;;;;;;14.82;11.13;;;18.10;99.90;;;;;;6244103;22;20030;-73
2023/05/08 09:39:25;;;;;;;14.13;11.15;;;18.20;99.90;;;;;;6244187;22;20027;-72
2023/05/08 09:41:58;;;;;;;17.25;10.60;;;18.30;99.90;;;;;;6244053;22;20024;-72
2023/05/08 09:44:24;;;;;;;14.32;11.20;;;18.30;99.90;;;;;;6271112;22;20091;-73
2023/05/08 09:46:49;;;;;;;13.63;10.50;;;18.40;99.90;;;;;;6244243;22;20051;-72
2023/05/08 09:49:18;;;;;;;13.13;10.88;;;18.30;99.90;;;;;;6272133;22;20016;-72
2023/05/08 09:51:54;;;;;;;17.42;10.73;;;18.50;99.90;;;;;;6270664;22;20022;-73
2023/05/08 09:54:20;;;;;;;13.05;10.20;;;18.30;99.90;;;;;;6270605;22;20110;-73
2023/05/08 09:56:46;;;;;;;13.30;10.20;;;18.40;99.90;;;;;;6271894;22;20808;-67
2023/05/08 09:59:26;;;;;;;12.43;10.13;;;18.60;99.90;;;;;;6244298;22;20020;-68
2023/05/08 10:01:53;;;;;;;13.23;10.60;;;18.80;99.90;;;;;;6271518;22;20340;-67
2023/05/08 10:04:35;;;;;;;14.07;11.02;;;18.90;99.90;;;;;;6271383;22;20459;-68
2023/05/08 10:07:02;;;;;;;12.93;10.63;;;18.80;99.90;;;;;;6271089;22;20023;-68
2023/05/08 10:09:28;;;;;;;12.25;9.95;;;18.90;99.90;;;;;;6271565;22;20015;-68
2023/05/08 10:11:54;;;;;;;13.30;10.10;;;18.90;99.90;;;;;;6272946;22;20019;-67
2023/05/08 10:14:21;;;;;;;13.43;10.75;;;19.00;99.90;;;;;;6245364;22;20078;-73
2023/05/08 10:16:50;;;;;;;15.15;11.18;;;19.10;99.90;;;;;;6273147;22;20046;-73
2023/05/08 10:19:20;;;;;;;14.20;11.50;;;18.90;99.90;;;;;;6246041;22;20073;-72
2023/05/08 10:21:49;;;;;;;13.68;10.43;;;18.90;99.90;;;;;;6273600;22;20388;-74
2023/05/08 10:24:20;;;;;;;13.73;11.00;;;18.90;99.90;;;;;;6246320;22;20028;-73
2023/05/08 10:27:16;;;;;;;16.23;10.48;;;18.80;99.90;;;;;;6273518;22;20016;-73
2023/05/08 10:29:52;;;;;;;15.70;11.73;;;19.00;99.90;;;;;;6273543;22;20019;-73
2023/05/08 10:32:22;;;;;;;14.55;9.77;;;19.10;99.90;;;;;;6246369;22;20022;-72
2023/05/08 10:34:52;;;;;;;15.20;11.07;;;19.20;99.90;;;;;;6273313;22;20016;-72
2023/05/08 10:37:18;;;;;;;17.48;12.88;;;19.20;99.90;;;;;;6245948;22;20125;-72
2023/05/08 10:39:45;;;;;;;13.55;11.35;;;19.20;99.90;;;;;;6273111;22;20015;-72
2023/05/08 10:42:14;;;;;;;13.68;11.15;;;19.30;99.90;;;;;;6272787;22;20024;-72
2023/05/08 10:44:40;;;;;;;18.20;12.15;;;19.30;99.90;;;;;;6273119;22;20031;-72
2023/05/08 10:47:33;;;;;;;15.32;11.65;;;19.30;99.90;;;;;;6273350;22;20023;-72
2023/05/08 10:50:32;;;;;;;14.10;11.15;;;19.30;99.90;;;;;;6272672;22;20065;-73
2023/05/08 10:53:35;;;;;;;15.07;11.07;;;19.30;99.90;;;;;;6270744;22;20154;-67
2023/05/08 10:56:01;;;;;;;16.27;11.50;;;19.40;99.90;;;;;;6273026;22;20011;-67
2023/05/08 10:58:34;;;;;;;16.45;11.80;;;19.50;99.90;;;;;;6272690;22;20069;-67
2023/05/08 11:01:04;;;;;;;18.17;12.30;;;19.60;99.90;;;;;;6273003;22;20343;-67
2023/05/08 11:03:32;;;;;;;13.23;11.25;;;19.70;99.90;;;;;;6272313;22;20022;-67
2023/05/08 11:05:58;;;;;;;17.45;12.60;;;19.80;99.90;;;;;;6272397;22;20470;-67
2023/05/08 11:08:26;;;;;;;17.58;11.98;;;19.80;99.90;;;;;;6273320;22;20023;-67
2023/05/08 11:11:01;;;;;;;16.00;11.90;;;19.80;99.90;;;;;;6274208;22;20022;-79
2023/05/08 11:13:31;;;;;;;18.67;11.90;;;19.90;99.90;;;;;;6246455;22;20032;-79
2023/05/08 11:15:56;;;;;;;17.20;12.85;;;20.00;99.90;;;;;;6246070;22;20036;-79
2023/05/08 11:18:23;;;;;;;21.52;12.75;;;20.00;99.90;;;;;;6273559;22;20030;-79
2023/05/08 11:21:03;;;;;;;14.00;11.52;;;20.00;99.90;;;;;;6273663;22;20434;-79
2023/05/08 11:23:33;;;;;;;15.85;12.80;;;20.10;99.90;;;;;;6245902;22;20020;-79
2023/05/08 11:26:13;;;;;;;14.55;11.73;;;20.20;99.90;;;;;;6246281;22;20016;-79
2023/05/08 11:28:56;;;;;;;16.95;12.93;;;20.30;99.90;;;;;;6271760;22;20097;-79
2023/05/08 11:31:22;;;;;;;17.92;12.77;;;20.30;99.90;;;;;;6271634;22;20031;-78
2023/05/08 11:33:48;;;;;;;17.65;12.93;;;20.30;99.90;;;;;;6273620;22;20023;-78
2023/05/08 11:36:15;;;;;;;18.90;13.45;;;20.40;99.90;;;;;;6270974;22;20020;-78
2023/05/08 11:38:42;;;;;;;20.60;12.65;;;20.50;99.90;;;;;;6270717;22;20051;-79
2023/05/08 11:41:21;;;;;;;16.55;12.65;;;20.50;99.90;;;;;;6245444;22;20015;-79
2023/05/08 11:44:07;;;;;;;17.02;12.63;;;20.50;99.90;;;;;;6245509;22;20030;-78
2023/05/08 11:46:51;;;;;;;17.27;12.95;;;20.40;99.90;;;;;;6273357;22;20062;-79
2023/05/08 11:49:18;;;;;;;13.25;10.52;;;20.40;99.90;;;;;;6245576;22;20517;-78
2023/05/08 11:51:45;;;;;;;13.60;10.63;;;20.60;99.90;;;;;;6245640;22;20011;-79
2023/05/08 11:54:17;;;;;;;13.85;10.43;;;20.70;99.90;;;;;;6245907;22;20038;-79
2023/05/08 11:56:50;;;;;;;15.18;11.27;;;20.70;99.90;;;;;;6273587;22;20047;-79
2023/05/08 11:59:17;;;;;;;16.15;11.55;;;20.80;99.90;;;;;;6271369;22;20016;-80
2023/05/08 12:01:43;;;;;;;16.58;12.35;;;20.70;99.90;;;;;;6273032;22;20023;-79
2023/05/08 12:04:12;;;;;;;15.85;12.60;;;20.80;99.90;;;;;;6246048;22;20355;-79
2023/05/08 12:06:39;;;;;;;14.38;11.52;;;20.90;99.90;;;;;;6245447;22;20451;-73
2023/05/08 12:09:17;;;;;;;14.98;11.55;;;20.90;99.90;;;;;;6245053;22;20016;-73
2023/05/08 12:11:44;;;;;;;17.45;12.98;;;20.90;99.90;;;;;;6272130;22;20096;-74
2023/05/08 12:14:12;;;;;;;13.95;10.77;;;21.00;99.90;;;;;;6272511;22;20109;-73
2023/05/08 12:16:38;;;;;;;13.52;10.45;;;21.00;99.90;;;;;;6243956;22;20023;-74
2023/05/08 12:19:12;;;;;;;16.52;11.63;;;21.20;99.90;;;;;;6243667;22;20034;-73
2023/05/08 12:21:38;;;;;;;13.00;10.27;;;21.30;99.90;;;;;;6271439;22;20063;-73
2023/05/08 12:24:10;;;;;;;15.20;10.25;;;21.30;99.90;;;;;;6271120;22;20024;-73
2023/05/08 12:26:37;;;;;;;15.20;11.50;;;21.40;99.90;;;;;;6244544;22;20185;-73
2023/05/08 12:29:07;;;;;;;15.77;11.55;;;21.40;99.90;;;;;;6272094;22;20347;-73
2023/05/08 12:31:34;;;;;;;13.60;10.73;;;21.50;99.90;;;;;;6269790;22;20019;-73
2023/05/08 12:34:04;;;;;;;14.90;11.40;;;21.50;99.90;;;;;;6271803;22;20081;-74
2023/05/08 12:36:37;;;;;;;14.65;10.68;;;21.40;99.90;;;;;;6271770;22;20346;-73
2023/05/08 12:39:18;;;;;;;14.05;11.23;;;21.40;99.90;;;;;;6271720;22;20030;-73
2023/05/08 12:41:51;;;;;;;14.68;11.38;;;21.50;99.90;;;;;;6244494;22;20020;-73